createdAt,value
2019-03-31T00:01:08.054Z,75.50
2019-03-31T00:03:35.318Z,74.10
2019-03-31T00:06:09.899Z,77.07
2019-03-31T00:08:43.305Z,80.00
2019-03-31T00:11:22.640Z,75.77
2019-03-31T00:13:55.920Z,76.07
2019-03-31T00:16:29.340Z,77.20
2019-03-31T00:19:02.678Z,78.70
2019-03-31T00:21:51.877Z,73.60
2019-03-31T00:27:04.386Z,79.00
2019-03-31T00:29:37.789Z,80.83
2019-03-31T00:32:11.174Z,79.97
2019-03-31T00:34:47.693Z,74.43
2019-03-31T00:37:21.159Z,73.37
2019-03-31T00:39:54.568Z,78.57
2019-03-31T00:42:27.922Z,76.93
2019-03-31T00:45:02.478Z,77.40
2019-03-31T00:47:36.009Z,76.07
2019-03-31T00:50:10.795Z,76.20
2019-03-31T00:52:47.223Z,78.00
2019-03-31T00:55:20.548Z,77.73
2019-03-31T00:57:53.888Z,79.10
2019-03-31T01:00:45.518Z,79.23
2019-03-31T01:03:22.129Z,77.90
2019-03-31T01:05:55.798Z,82.97
2019-03-31T01:08:32.358Z,83.67
2019-03-31T01:11:10.711Z,84.77
2019-03-31T01:13:46.442Z,86.20
2019-03-31T01:16:20.560Z,85.43
2019-03-31T01:18:54.908Z,84.17
2019-03-31T01:21:32.728Z,85.13
2019-03-31T01:24:06.288Z,83.07
2019-03-31T01:26:39.703Z,90.07
2019-03-31T01:29:14.514Z,95.23
2019-03-31T01:31:50.636Z,93.93
2019-03-31T01:34:24.119Z,112.90
2019-03-31T01:36:59.001Z,112.43
2019-03-31T01:39:33.458Z,105.73
2019-03-31T01:42:07.483Z,104.43
2019-03-31T01:44:42.014Z,104.60
2019-03-31T01:47:18.481Z,102.77
2019-03-31T01:49:51.950Z,104.50
2019-03-31T01:52:25.349Z,107.00
2019-03-31T01:54:58.703Z,110.27
2019-03-31T01:57:32.902Z,106.47
2019-03-31T02:00:12.478Z,112.30
2019-03-31T02:02:45.882Z,113.17
2019-03-31T02:05:19.237Z,117.23
2019-03-31T02:07:52.752Z,112.70
2019-03-31T02:10:29.508Z,109.70
2019-03-31T02:13:07.889Z,109.80
2019-03-31T02:15:41.249Z,107.73
2019-03-31T02:18:14.663Z,97.80
2019-03-31T02:20:48.020Z,112.47
2019-03-31T02:23:21.407Z,106.90
2019-03-31T02:25:56.678Z,110.50
2019-03-31T02:28:30.159Z,104.57
2019-03-31T02:31:03.638Z,104.07
2019-03-31T02:33:50.347Z,109.80
2019-03-31T02:36:23.841Z,104.17
2019-03-31T02:38:57.204Z,104.23
2019-03-31T02:41:30.695Z,109.37
2019-03-31T02:44:06.776Z,107.93
2019-03-31T02:46:40.201Z,102.13
2019-03-31T02:49:13.572Z,104.07
2019-03-31T02:51:48.080Z,98.83
2019-03-31T02:54:23.230Z,108.53
2019-03-31T02:56:57.240Z,101.90
2019-03-31T02:59:33.569Z,106.00
2019-03-31T03:02:07.172Z,105.00
2019-03-31T03:04:42.329Z,107.43
2019-03-31T03:07:22.809Z,104.57
2019-03-31T03:09:58.422Z,104.43
2019-03-31T03:12:35.677Z,101.30
2019-03-31T03:15:09.350Z,98.63
2019-03-31T03:17:42.729Z,96.10
2019-03-31T03:20:16.109Z,91.63
2019-03-31T03:22:49.499Z,95.10
2019-03-31T03:25:25.567Z,91.60
2019-03-31T03:27:59.057Z,99.67
2019-03-31T03:30:32.456Z,96.93
2019-03-31T03:33:18.454Z,92.47
2019-03-31T03:35:52.174Z,87.67
2019-03-31T03:38:25.560Z,85.93
2019-03-31T03:40:58.908Z,79.77
2019-03-31T03:43:33.470Z,79.80
2019-03-31T03:46:06.830Z,80.70
2019-03-31T03:48:40.211Z,78.10
2019-03-31T03:51:14.776Z,79.93
2019-03-31T03:53:48.259Z,73.57
2019-03-31T03:56:21.629Z,69.93
2019-03-31T03:58:55.880Z,70.53
2019-03-31T04:01:30.060Z,66.13
2019-03-31T04:04:03.561Z,71.53
2019-03-31T04:06:36.909Z,72.57
2019-03-31T04:09:10.325Z,67.80
2019-03-31T04:11:43.705Z,67.03
2019-03-31T04:14:18.593Z,65.37
2019-03-31T04:16:52.777Z,65.03
2019-03-31T04:19:44.881Z,62.73
2019-03-31T04:22:18.232Z,62.70
2019-03-31T04:24:51.628Z,66.57
2019-03-31T04:27:25.321Z,66.53
2019-03-31T04:30:07.213Z,65.87
2019-03-31T04:32:41.803Z,70.27
2019-03-31T04:35:16.172Z,65.57
2019-03-31T04:37:49.568Z,69.43
2019-03-31T04:40:23.231Z,61.20
2019-03-31T04:42:56.632Z,59.17
2019-03-31T04:45:30.989Z,66.90
2019-03-31T04:48:04.501Z,69.30
2019-03-31T04:50:37.888Z,69.20
2019-03-31T04:53:11.367Z,69.13
2019-03-31T04:55:44.671Z,65.27
2019-03-31T04:58:18.070Z,63.93
2019-03-31T05:00:51.535Z,61.23
2019-03-31T05:03:24.929Z,63.53
2019-03-31T05:05:59.679Z,64.83
2019-03-31T05:08:37.920Z,68.67
2019-03-31T05:11:11.219Z,69.23
2019-03-31T05:13:48.886Z,70.20
2019-03-31T05:16:26.220Z,73.97
2019-03-31T05:18:59.619Z,70.17
2019-03-31T05:21:32.983Z,82.00
2019-03-31T05:24:06.382Z,78.10
2019-03-31T05:26:39.740Z,71.13
2019-03-31T05:29:13.129Z,78.27
2019-03-31T05:31:49.250Z,75.60
2019-03-31T05:34:26.184Z,70.77
2019-03-31T05:37:03.441Z,71.93
2019-03-31T05:39:36.961Z,74.63
2019-03-31T05:42:10.334Z,77.87
2019-03-31T05:44:45.268Z,83.77
2019-03-31T05:47:18.646Z,80.83
2019-03-31T05:49:54.779Z,83.07
2019-03-31T05:52:28.136Z,76.57
2019-03-31T05:55:01.600Z,72.23
2019-03-31T05:57:34.980Z,73.00
2019-03-31T06:00:11.345Z,74.13
2019-03-31T06:02:44.851Z,73.53
2019-03-31T06:05:18.252Z,69.40
2019-03-31T06:07:51.615Z,73.50
2019-03-31T06:10:25.033Z,77.27
2019-03-31T06:12:58.488Z,82.77
2019-03-31T06:15:31.956Z,78.97
2019-03-31T06:18:05.368Z,83.30
2019-03-31T06:20:38.794Z,78.57
2019-03-31T06:23:12.181Z,74.00
2019-03-31T06:25:46.238Z,74.07
2019-03-31T06:28:19.578Z,70.47
2019-03-31T06:30:52.966Z,71.43
2019-03-31T06:33:26.370Z,68.57
2019-03-31T06:35:59.773Z,76.90
2019-03-31T06:38:33.068Z,71.47
2019-03-31T06:41:06.480Z,75.47
2019-03-31T06:43:45.530Z,80.13
2019-03-31T06:46:18.986Z,69.73
2019-03-31T06:48:52.320Z,73.37
2019-03-31T06:51:25.734Z,70.97
2019-03-31T06:53:59.408Z,69.90
2019-03-31T06:56:32.841Z,73.83
2019-03-31T06:59:06.242Z,71.27
2019-03-31T07:01:39.692Z,69.33
2019-03-31T07:04:13.236Z,68.57
2019-03-31T07:06:46.857Z,75.57
2019-03-31T07:09:20.270Z,73.23
2019-03-31T07:11:53.762Z,75.40
2019-03-31T07:14:27.226Z,73.13
2019-03-31T07:17:00.627Z,72.80
2019-03-31T07:19:34.105Z,69.00
2019-03-31T07:22:08.520Z,71.00
2019-03-31T07:24:41.889Z,67.08
2019-03-31T07:27:15.429Z,66.30
2019-03-31T07:29:48.830Z,65.87
2019-03-31T07:32:25.364Z,60.73
2019-03-31T07:34:59.722Z,66.02
2019-03-31T07:37:46.584Z,61.60
2019-03-31T07:40:13.206Z,59.75
2019-03-31T07:42:46.576Z,61.15
2019-03-31T07:45:21.678Z,55.43
2019-03-31T07:47:58.379Z,51.60
2019-03-31T07:50:32.767Z,45.08
2019-03-31T07:53:07.972Z,44.73
2019-03-31T07:55:42.895Z,40.25
2019-03-31T07:58:16.255Z,37.90
2019-03-31T08:00:49.602Z,36.65
2019-03-31T08:03:25.788Z,38.38
2019-03-31T08:05:59.928Z,37.00
2019-03-31T08:08:37.434Z,33.95
2019-03-31T08:11:11.600Z,35.17
2019-03-31T08:13:44.941Z,36.98
2019-03-31T08:16:21.352Z,36.65
2019-03-31T08:18:54.622Z,38.00
2019-03-31T08:21:29.460Z,39.35
2019-03-31T08:24:06.342Z,35.92
2019-03-31T08:26:38.676Z,33.50
2019-03-31T08:29:14.037Z,37.08
2019-03-31T08:31:47.759Z,31.65
2019-03-31T08:34:21.264Z,32.05
2019-03-31T08:36:55.534Z,25.17
2019-03-31T08:39:29.773Z,31.60
2019-03-31T08:42:03.071Z,32.38
2019-03-31T08:44:37.581Z,30.37
2019-03-31T08:47:10.988Z,28.23
2019-03-31T08:49:44.426Z,32.45
2019-03-31T08:52:18.638Z,33.42
2019-03-31T08:54:52.281Z,34.27
2019-03-31T08:57:26.210Z,24.98
2019-03-31T08:59:59.629Z,26.82
2019-03-31T09:02:36.375Z,28.62
2019-03-31T09:05:11.205Z,30.75
2019-03-31T09:07:45.034Z,27.40
2019-03-31T09:10:20.731Z,28.20
2019-03-31T09:12:54.088Z,27.20
2019-03-31T09:15:27.530Z,26.40
2019-03-31T09:18:00.901Z,24.10
2019-03-31T09:20:36.210Z,19.35
2019-03-31T09:23:10.309Z,21.52
2019-03-31T09:25:47.459Z,21.75
2019-03-31T09:28:19.842Z,19.07
2019-03-31T09:30:53.274Z,22.30
2019-03-31T09:33:39.449Z,14.83
2019-03-31T09:36:17.753Z,17.25
2019-03-31T09:38:51.751Z,16.93
2019-03-31T09:41:28.278Z,18.17
2019-03-31T09:44:01.741Z,18.37
2019-03-31T09:46:37.114Z,17.48
2019-03-31T09:49:10.931Z,16.00
2019-03-31T09:51:44.748Z,16.42
2019-03-31T09:54:21.502Z,15.70
2019-03-31T09:56:58.149Z,12.95
2019-03-31T09:59:31.872Z,13.78
2019-03-31T10:02:08.228Z,15.38
2019-03-31T10:04:43.221Z,15.23
2019-03-31T10:07:17.793Z,18.15
2019-03-31T10:12:33.630Z,14.47
2019-03-31T10:15:10.039Z,12.95
2019-03-31T10:17:46.614Z,14.28
2019-03-31T10:20:20.484Z,14.63
2019-03-31T10:22:53.939Z,13.48
2019-03-31T10:25:27.286Z,13.72
2019-03-31T10:28:01.323Z,13.60
2019-03-31T10:30:38.904Z,13.45
2019-03-31T10:33:12.442Z,11.48
2019-03-31T10:35:45.852Z,13.50
2019-03-31T10:38:19.350Z,12.30
2019-03-31T10:40:52.840Z,11.57
2019-03-31T10:43:27.865Z,13.38
2019-03-31T10:46:01.693Z,12.47
2019-03-31T10:48:36.691Z,12.78
2019-03-31T10:51:15.532Z,12.90
2019-03-31T10:53:50.507Z,12.93
2019-03-31T10:56:23.889Z,13.00
2019-03-31T10:58:57.311Z,15.53
2019-03-31T11:01:30.720Z,14.13
2019-03-31T11:04:04.952Z,13.43
2019-03-31T11:06:38.406Z,12.93
2019-03-31T11:09:11.848Z,13.13
2019-03-31T11:11:45.322Z,11.93
2019-03-31T11:14:22.243Z,13.88
2019-03-31T11:16:56.379Z,13.85
2019-03-31T11:19:29.808Z,13.62
2019-03-31T11:22:21.396Z,12.33
2019-03-31T11:24:55.001Z,12.85
2019-03-31T11:27:29.423Z,13.45
2019-03-31T11:30:03.008Z,11.28
2019-03-31T11:32:36.498Z,13.95
2019-03-31T11:35:10.704Z,13.78
2019-03-31T11:37:44.202Z,12.70
2019-03-31T11:40:17.737Z,11.60
2019-03-31T11:42:51.150Z,13.22
2019-03-31T11:45:24.601Z,12.65
2019-03-31T11:47:59.165Z,13.58
2019-03-31T11:50:32.790Z,13.40
2019-03-31T11:53:07.408Z,13.08
2019-03-31T11:55:41.568Z,12.28
2019-03-31T11:58:14.999Z,12.85
2019-03-31T12:00:52.879Z,11.83
2019-03-31T12:03:30.642Z,10.55
2019-03-31T12:06:02.219Z,8.53
2019-03-31T12:08:35.541Z,10.50
2019-03-31T12:11:09.005Z,10.93
2019-03-31T12:13:42.424Z,10.98
2019-03-31T12:16:15.869Z,11.73
2019-03-31T12:18:49.263Z,9.98
2019-03-31T12:21:22.793Z,10.13
2019-03-31T12:23:56.193Z,11.93
2019-03-31T12:26:29.655Z,11.97
2019-03-31T12:29:03.162Z,13.43
2019-03-31T12:31:37.151Z,11.57
2019-03-31T12:34:10.540Z,9.65
2019-03-31T12:36:45.180Z,9.93
2019-03-31T12:39:18.630Z,9.55
2019-03-31T12:41:52.039Z,10.72
2019-03-31T12:44:25.429Z,10.88
2019-03-31T12:46:58.850Z,9.10
2019-03-31T12:49:32.273Z,10.58
2019-03-31T12:52:05.789Z,10.88
2019-03-31T12:54:39.187Z,10.03
2019-03-31T12:57:12.619Z,10.70
2019-03-31T12:59:45.999Z,12.88
2019-03-31T13:02:19.450Z,10.20
2019-03-31T13:04:52.832Z,17.75
2019-03-31T13:07:28.450Z,10.58
2019-03-31T13:10:01.828Z,11.40
2019-03-31T13:12:36.260Z,10.10
2019-03-31T13:15:09.908Z,12.00
2019-03-31T13:17:43.418Z,12.73
2019-03-31T13:20:19.532Z,9.80
2019-03-31T13:22:52.969Z,11.00
2019-03-31T13:25:26.370Z,10.32
2019-03-31T13:27:59.930Z,10.43
2019-03-31T13:30:33.288Z,10.88
2019-03-31T13:33:06.869Z,12.37
2019-03-31T13:35:43.886Z,11.63
2019-03-31T13:38:17.288Z,10.82
2019-03-31T13:40:50.731Z,10.28
2019-03-31T13:43:24.112Z,14.43
2019-03-31T13:46:00.071Z,13.25
2019-03-31T13:48:33.529Z,10.03
2019-03-31T13:51:06.919Z,13.53
2019-03-31T13:53:40.440Z,11.08
2019-03-31T13:56:14.281Z,9.90
2019-03-31T13:58:52.346Z,11.30
2019-03-31T14:01:22.860Z,11.63
2019-03-31T14:03:57.795Z,10.53
2019-03-31T14:06:32.804Z,10.68
2019-03-31T14:09:09.593Z,8.15
2019-03-31T14:11:43.092Z,11.45
2019-03-31T14:14:16.592Z,9.98
2019-03-31T14:16:50.024Z,12.68
2019-03-31T14:19:23.609Z,12.82
2019-03-31T14:21:57.001Z,13.65
2019-03-31T14:24:30.601Z,12.28
2019-03-31T14:27:05.404Z,11.43
2019-03-31T14:29:42.258Z,12.13
2019-03-31T14:32:13.832Z,11.12
2019-03-31T14:34:47.369Z,10.00
2019-03-31T14:37:20.781Z,12.25
2019-03-31T14:39:54.195Z,12.18
2019-03-31T14:42:27.611Z,10.93
2019-03-31T14:45:02.246Z,10.53
2019-03-31T14:47:37.705Z,12.43
2019-03-31T14:50:15.149Z,13.25
2019-03-31T14:52:48.561Z,12.60
2019-03-31T14:55:22.000Z,11.57
2019-03-31T14:57:55.363Z,13.80
2019-03-31T15:00:29.419Z,16.57
2019-03-31T15:03:04.975Z,16.27
2019-03-31T15:05:39.213Z,18.20
2019-03-31T15:08:13.461Z,16.10
2019-03-31T15:10:48.113Z,18.82
2019-03-31T15:13:25.921Z,18.80
2019-03-31T15:15:59.713Z,16.95
2019-03-31T15:18:33.166Z,18.85
2019-03-31T15:21:08.339Z,18.52
2019-03-31T15:23:41.880Z,18.92
2019-03-31T15:26:17.013Z,20.48
2019-03-31T15:28:50.471Z,21.02
2019-03-31T15:31:24.240Z,22.87
2019-03-31T15:33:57.680Z,22.10
2019-03-31T15:36:33.863Z,19.17
2019-03-31T15:39:09.730Z,22.82
2019-03-31T15:41:45.220Z,20.27
2019-03-31T15:44:18.713Z,19.87
2019-03-31T15:46:52.270Z,19.48
2019-03-31T15:49:26.911Z,21.15
2019-03-31T15:52:00.783Z,20.17
2019-03-31T15:54:34.387Z,21.42
2019-03-31T15:57:12.042Z,20.88
2019-03-31T15:59:54.656Z,18.70
2019-03-31T16:02:32.012Z,20.48
2019-03-31T16:05:08.828Z,24.82
2019-03-31T16:07:48.380Z,29.02
2019-03-31T16:10:27.011Z,25.20
2019-03-31T16:13:00.431Z,25.60
2019-03-31T16:15:33.914Z,20.32
2019-03-31T16:18:10.008Z,27.32
2019-03-31T16:20:43.367Z,25.90
2019-03-31T16:23:18.010Z,29.27
2019-03-31T16:25:52.909Z,26.65
2019-03-31T16:28:26.300Z,27.67
2019-03-31T16:33:40.518Z,31.17
2019-03-31T16:36:15.961Z,31.42
2019-03-31T16:38:49.357Z,41.83
2019-03-31T16:41:22.754Z,28.05
2019-03-31T16:43:56.222Z,28.90
2019-03-31T16:46:30.794Z,30.00
2019-03-31T16:49:04.175Z,29.98
2019-03-31T16:51:41.603Z,32.20
2019-03-31T16:54:15.001Z,34.30
2019-03-31T16:56:50.020Z,35.70
2019-03-31T16:59:23.627Z,35.78
2019-03-31T17:01:56.983Z,36.65
2019-03-31T17:04:30.492Z,49.15
2019-03-31T17:07:04.182Z,37.15
2019-03-31T17:09:50.995Z,33.05
2019-03-31T17:12:15.638Z,33.10
2019-03-31T17:14:49.351Z,31.68
2019-03-31T17:17:22.714Z,31.27
2019-03-31T17:19:56.234Z,31.48
2019-03-31T17:22:29.753Z,31.30
2019-03-31T17:25:03.330Z,28.57
2019-03-31T17:27:39.136Z,30.92
2019-03-31T17:30:14.387Z,29.25
2019-03-31T17:32:47.836Z,29.50
2019-03-31T17:35:21.873Z,28.62
2019-03-31T17:37:55.576Z,30.40
2019-03-31T17:40:29.438Z,30.00
2019-03-31T17:43:02.917Z,29.37
2019-03-31T17:45:40.292Z,27.77
2019-03-31T17:48:16.053Z,29.32
2019-03-31T17:50:51.791Z,32.00
2019-03-31T17:53:25.473Z,30.35
2019-03-31T17:55:58.991Z,29.27
2019-03-31T17:58:32.551Z,29.23
2019-03-31T18:01:06.107Z,30.92
2019-03-31T18:03:39.650Z,26.23
2019-03-31T18:06:13.413Z,29.50
2019-03-31T18:08:47.415Z,28.45
2019-03-31T18:11:20.832Z,27.93
2019-03-31T18:13:54.360Z,28.42
2019-03-31T18:16:29.400Z,26.37
2019-03-31T18:19:04.771Z,27.52
2019-03-31T18:21:38.531Z,28.32
2019-03-31T18:24:11.928Z,28.98
2019-03-31T18:26:46.634Z,28.15
2019-03-31T18:29:20.063Z,32.50
2019-03-31T18:31:53.482Z,29.00
2019-03-31T18:34:43.863Z,27.07
2019-03-31T18:37:09.521Z,28.17
2019-03-31T18:39:47.046Z,27.45
2019-03-31T18:42:20.481Z,27.15
2019-03-31T18:44:54.714Z,26.25
2019-03-31T18:47:28.914Z,27.60
2019-03-31T18:50:03.000Z,27.15
2019-03-31T18:52:38.027Z,26.17
2019-03-31T18:55:13.231Z,23.62
2019-03-31T18:57:48.229Z,24.05
2019-03-31T19:00:24.446Z,23.00
2019-03-31T19:03:08.029Z,23.02
2019-03-31T19:06:03.661Z,21.30
2019-03-31T19:08:44.683Z,21.82
2019-03-31T19:11:31.241Z,29.30
2019-03-31T19:14:04.441Z,19.80
2019-03-31T19:16:40.105Z,19.85
2019-03-31T19:19:31.489Z,25.25
2019-03-31T19:22:05.063Z,39.27
2019-03-31T19:24:40.692Z,24.75
2019-03-31T19:27:31.968Z,25.00
2019-03-31T19:30:18.414Z,26.97
2019-03-31T19:32:59.207Z,25.88
2019-03-31T19:35:33.522Z,29.12
2019-03-31T19:38:14.299Z,24.20
2019-03-31T19:41:03.332Z,30.75
2019-03-31T19:43:28.811Z,22.45
2019-03-31T19:46:19.447Z,15.48
2019-03-31T19:49:00.536Z,19.50
2019-03-31T19:51:35.456Z,15.38
2019-03-31T19:54:28.750Z,17.92
2019-03-31T19:57:18.586Z,22.05
2019-03-31T20:00:06.604Z,18.35
2019-03-31T20:02:51.611Z,17.73
2019-03-31T20:05:27.136Z,15.38
2019-03-31T20:08:18.214Z,14.40
2019-03-31T20:10:53.163Z,15.13
2019-03-31T20:13:26.207Z,13.35
2019-03-31T20:16:16.771Z,16.65
2019-03-31T20:19:01.422Z,15.30
2019-03-31T20:21:45.111Z,14.63
2019-03-31T20:24:27.040Z,15.90
2019-03-31T20:27:08.648Z,14.33
2019-03-31T20:29:45.009Z,14.38
2019-03-31T20:32:19.880Z,13.35
2019-03-31T20:34:55.379Z,12.98
2019-03-31T20:37:30.297Z,12.23
2019-03-31T20:40:20.938Z,12.20
2019-03-31T20:43:07.423Z,13.30
2019-03-31T20:45:40.762Z,13.80
2019-03-31T20:48:15.153Z,14.98
2019-03-31T20:50:48.520Z,14.63
2019-03-31T20:53:23.445Z,14.20
2019-03-31T20:55:56.788Z,14.40
2019-03-31T20:58:30.157Z,14.90
2019-03-31T21:01:03.493Z,15.70
2019-03-31T21:03:36.898Z,13.98
2019-03-31T21:06:18.113Z,15.08
2019-03-31T21:08:51.508Z,14.83
2019-03-31T21:11:24.878Z,15.58
2019-03-31T21:13:58.296Z,14.90
2019-03-31T21:16:31.663Z,16.07
2019-03-31T21:19:06.258Z,16.03
2019-03-31T21:21:39.628Z,14.97
2019-03-31T21:24:13.118Z,15.73
2019-03-31T21:26:46.497Z,14.37
2019-03-31T21:29:19.885Z,15.80
2019-03-31T21:31:53.245Z,19.33
2019-03-31T21:41:20.058Z,18.37
2019-03-31T21:47:31.709Z,18.37
2019-03-31T21:50:06.876Z,17.07
2019-03-31T21:52:40.269Z,14.53
2019-03-31T21:55:13.626Z,16.00
2019-03-31T21:57:47.018Z,16.20
2019-03-31T22:00:23.959Z,14.87
2019-03-31T22:02:59.030Z,14.47
2019-03-31T22:05:32.483Z,14.27
2019-03-31T22:08:08.614Z,15.77
2019-03-31T22:10:42.018Z,15.40
2019-03-31T22:15:59.782Z,16.10
2019-03-31T22:18:33.229Z,15.97
2019-03-31T22:21:08.151Z,15.87
2019-03-31T22:23:41.462Z,14.20
2019-03-31T22:26:14.739Z,15.73
2019-03-31T22:28:48.206Z,14.23
2019-03-31T22:31:21.586Z,13.20
2019-03-31T22:33:56.067Z,14.43
2019-03-31T22:36:29.438Z,14.00
2019-03-31T22:39:02.914Z,14.53
2019-03-31T22:41:36.484Z,13.70
2019-03-31T22:44:09.871Z,12.47
2019-03-31T22:46:53.651Z,14.23
2019-03-31T22:49:18.242Z,13.03
2019-03-31T22:51:51.589Z,13.40
2019-03-31T22:54:25.005Z,12.67
2019-03-31T22:56:58.372Z,13.10
2019-03-31T23:02:36.879Z,13.23
2019-03-31T23:05:10.273Z,12.37
2019-03-31T23:07:43.639Z,12.90
2019-03-31T23:13:43.818Z,12.63
2019-03-31T23:18:49.395Z,11.80
2019-03-31T23:21:22.743Z,11.37
2019-03-31T23:23:56.118Z,12.03
2019-03-31T23:26:29.469Z,12.00
2019-03-31T23:29:02.872Z,11.17
2019-03-31T23:31:36.228Z,11.40
2019-03-31T23:37:53.319Z,11.30
2019-03-31T23:40:26.722Z,11.33
2019-03-31T23:43:00.082Z,9.47
2019-03-31T23:51:29.708Z,8.23
2019-03-31T23:54:03.083Z,7.20
2019-03-31T23:56:36.467Z,7.50
2019-03-31T23:59:09.848Z,6.83
